πŸ“Š DonnΓ©es MΓ©tΓ©o - Bordeaux

Total mesures

14,344

TempΓ©rature moyenne

18.8Β°C

Temp. Min/Max

2.9Β° / 42.4Β°

HumiditΓ© moyenne

64.9%

Pression moyenne

1014.7 hPa
enregistrements
ID Date/Heure Temp (Β°C) HumiditΓ© (%) Pression (hPa) Tendance LuminositΓ© (lux) Situation
13444 22/08/2026 18:15 27.2 29.0 1,013.5 β†’ Stable 11,016 conditions-neutrales-ou-non-definies
13443 22/08/2026 17:45 27.6 29.0 1,013.6 β†’ Stable 20,088 conditions-neutrales-ou-non-definies
13442 22/08/2026 17:30 27.9 29.0 1,013.6 β†’ Stable 25,368 conditions-neutrales-ou-non-definies
13441 22/08/2026 17:15 28.0 29.0 1,013.6 β†’ Stable 30,468 conditions-neutrales-ou-non-definies
13440 22/08/2026 16:45 28.3 29.0 1,013.8 β†’ Stable 42,132 conditions-neutrales-ou-non-definies
13439 22/08/2026 16:30 28.3 29.0 1,013.8 β†’ Stable 47,412 conditions-neutrales-ou-non-definies
13438 22/08/2026 16:15 28.3 29.0 1,013.8 β†’ Stable 52,404 conditions-neutrales-ou-non-definies
13437 22/08/2026 15:45 28.3 30.0 1,014.2 β†’ Stable 62,964 conditions-neutrales-ou-non-definies
13436 22/08/2026 15:30 28.2 28.0 1,014.2 β†’ Stable 67,500 conditions-neutrales-ou-non-definies
13435 22/08/2026 15:15 28.2 29.0 1,014.2 β†’ Stable 71,664 confortablement-chaud (approx.)
13434 22/08/2026 14:45 28.0 29.0 1,014.5 β†’ Stable 80,556 confortablement-chaud (approx.)
13433 22/08/2026 14:30 28.0 29.0 1,014.5 β†’ Stable 83,796 confortablement-chaud (approx.)
13432 22/08/2026 14:15 27.8 30.0 1,014.5 β†’ Stable 86,856 confortablement-chaud (approx.)
13431 22/08/2026 14:00 27.6 30.0 1,014.5 β†’ Stable 90,828 confortablement-chaud (approx.)
13430 22/08/2026 13:45 27.4 31.0 1,014.8 β†’ Stable 93,336 confortablement-chaud (approx.)
13429 22/08/2026 13:30 26.9 34.0 1,014.8 β†’ Stable 95,376 confortablement-chaud (approx.)
13428 22/08/2026 13:15 26.7 34.0 1,015.1 β†’ Stable 97,128 confortablement-chaud (approx.)
13427 22/08/2026 12:45 26.2 36.0 1,015.6 β†’ Stable 100,188 confortablement-chaud (approx.)
13426 22/08/2026 12:30 26.1 36.0 1,015.6 β†’ Stable 100,560 confortablement-chaud (approx.)
13425 22/08/2026 12:15 25.8 37.0 1,015.6 β†’ Stable 100,836 confortablement-chaud (approx.)
13424 22/08/2026 12:00 25.5 38.0 1,015.6 β†’ Stable 100,560 confortablement-chaud (approx.)
13423 22/08/2026 11:45 25.2 40.0 1,016.1 β†’ Stable 100,092 confortablement-chaud
13422 22/08/2026 11:30 25.0 41.0 1,016.1 β†’ Stable 99,264 confortablement-chaud
13421 22/08/2026 11:15 24.6 42.0 1,016.1 β†’ Stable 98,052 confortablement-chaud
13420 22/08/2026 10:45 24.0 45.0 1,016.9 β†’ Stable 93,708 confortablement-chaud
13419 22/08/2026 10:15 23.5 47.0 1,016.9 β†’ Stable 87,132 confortablement-chaud (approx.)
13418 22/08/2026 10:00 23.1 49.0 1,016.9 β†’ Stable 83,796 confortablement-chaud (approx.)
13417 22/08/2026 09:45 22.7 52.0 1,017.1 β†’ Stable 80,556 frais-stable
13416 22/08/2026 09:30 22.4 53.0 1,017.1 β†’ Stable 77,316 frais-stable
13415 22/08/2026 09:15 22.1 55.0 1,017.1 β†’ Stable 73,524 frais-stable
13414 22/08/2026 09:00 21.7 57.0 1,017.1 β†’ Stable 67,776 frais-stable
13413 22/08/2026 08:45 21.3 59.0 1,017.1 β†’ Stable 63,516 frais-stable
13412 22/08/2026 08:15 20.5 64.0 1,017.1 β†’ Stable 54,168 frais-stable
13411 22/08/2026 08:00 20.0 66.0 1,017.1 β†’ Stable 47,316 frais-stable
13410 22/08/2026 07:45 19.5 69.0 1,017.4 β†’ Stable 42,504 frais-stable
13409 22/08/2026 07:15 17.5 77.0 1,017.4 β†’ Stable 32,592 pluvieux-gris (approx.)
13408 22/08/2026 06:45 16.1 84.0 1,017.1 β†’ Stable 21,024 pluvieux-gris (approx.)
13407 22/08/2026 06:30 15.4 84.0 1,017.1 β†’ Stable 16,020 pluvieux-gris
13406 22/08/2026 06:15 14.6 87.0 1,017.1 β†’ Stable 11,208 pluvieux-gris
13405 22/08/2026 05:45 13.8 89.0 1,016.7 β†’ Stable 2,868 pluvieux-gris
13404 22/08/2026 05:30 14.2 88.0 1,016.6 β†’ Stable 180 pluvieux-gris
13403 22/08/2026 05:15 14.3 87.0 1,016.6 β†’ Stable 0 pluvieux-gris
13402 22/08/2026 05:00 14.4 86.0 1,016.6 β†’ Stable 0 pluvieux-gris
13401 22/08/2026 04:45 14.6 86.0 1,016.6 β†’ Stable 0 pluvieux-gris
13400 22/08/2026 04:15 14.7 86.0 1,016.6 β†’ Stable 0 pluvieux-gris
13399 22/08/2026 03:45 14.7 86.0 1,016.5 β†’ Stable 0 pluvieux-gris
13398 22/08/2026 03:30 14.7 86.0 1,016.5 β†’ Stable 0 pluvieux-gris
13397 22/08/2026 03:15 14.6 87.0 1,016.5 β†’ Stable 0 pluvieux-gris
13396 22/08/2026 03:00 14.7 86.0 1,016.5 β†’ Stable 0 pluvieux-gris
13395 22/08/2026 02:45 14.8 86.0 1,016.4 β†’ Stable 0 pluvieux-gris
13394 22/08/2026 02:30 15.3 82.0 1,016.4 β†’ Stable 0 pluvieux-gris
13393 22/08/2026 02:15 15.4 81.0 1,016.4 β†’ Stable 0 pluvieux-gris
13392 22/08/2026 01:45 15.5 81.0 1,016.4 β†’ Stable 0 pluvieux-gris
13391 22/08/2026 01:30 15.9 81.0 1,016.4 β†’ Stable 0 pluvieux-gris
13390 22/08/2026 01:15 16.1 81.0 1,016.3 β†’ Stable 0 pluvieux-gris (approx.)
13389 22/08/2026 00:45 16.4 80.0 1,016.5 β†’ Stable 0 pluvieux-gris (approx.)
13388 22/08/2026 00:30 16.4 79.0 1,016.5 β†’ Stable 0 pluvieux-gris (approx.)
13387 22/08/2026 00:15 16.6 78.0 1,016.6 β†’ Stable 0 pluvieux-gris (approx.)
13386 22/08/2026 00:00 16.9 79.0 1,016.6 β†’ Stable 0 pluvieux-gris (approx.)
13385 21/08/2026 23:45 17.1 78.0 1,016.6 β†’ Stable 0 pluvieux-gris (approx.)
13384 21/08/2026 23:30 17.1 78.0 1,016.6 β†’ Stable 0 pluvieux-gris (approx.)
13383 21/08/2026 23:15 17.3 77.0 1,016.6 β†’ Stable 0 pluvieux-gris (approx.)
13382 21/08/2026 23:00 17.4 76.0 1,016.6 β†’ Stable 0 pluvieux-gris (approx.)
13381 21/08/2026 22:45 17.6 75.0 1,016.4 β†’ Stable 0 pluvieux-gris (approx.)
13380 21/08/2026 22:30 17.8 74.0 1,016.4 β†’ Stable 0 pluvieux-gris (approx.)
13379 21/08/2026 22:15 18.0 73.0 1,016.4 β†’ Stable 0 pluvieux-gris (approx.)
13378 21/08/2026 22:00 18.2 73.0 1,016.4 β†’ Stable 0 pluvieux-gris (approx.)
13377 21/08/2026 21:45 18.4 72.0 1,016.3 β†’ Stable 0 pluvieux-gris (approx.)
13376 21/08/2026 21:30 18.8 71.0 1,016.3 β†’ Stable 0 pluvieux-gris (approx.)
13375 21/08/2026 21:15 19.0 70.0 1,016.3 β†’ Stable 0 pluvieux-gris (approx.)
13374 21/08/2026 20:45 19.4 67.0 1,016.0 β†’ Stable 0 frais-stable
13373 21/08/2026 20:30 19.8 65.0 1,016.0 β†’ Stable 0 frais-stable
13372 21/08/2026 20:15 20.1 63.0 1,016.0 β†’ Stable 0 frais-stable
13371 21/08/2026 20:00 20.3 62.0 1,016.0 β†’ Stable 0 frais-stable
13370 21/08/2026 19:45 20.5 60.0 1,015.1 β†’ Stable 0 frais-stable
13369 21/08/2026 19:30 20.9 57.0 1,015.1 β†’ Stable 0 frais-stable
13368 21/08/2026 19:15 21.3 55.0 1,015.1 β†’ Stable 0 frais-stable
13367 21/08/2026 18:45 22.1 50.0 1,014.9 β†’ Stable 2,040 frais-stable
13366 21/08/2026 18:15 22.5 49.0 1,014.9 β†’ Stable 9,444 frais-stable
13365 21/08/2026 17:45 23.2 47.0 1,014.6 β†’ Stable 20,652 conditions-neutrales-ou-non-definies
13364 21/08/2026 17:30 23.3 47.0 1,014.6 β†’ Stable 25,740 conditions-neutrales-ou-non-definies
13363 21/08/2026 17:15 23.5 46.0 1,014.6 β†’ Stable 30,744 conditions-neutrales-ou-non-definies
13362 21/08/2026 17:00 23.7 46.0 1,014.6 β†’ Stable 36,384 conditions-neutrales-ou-non-definies
13361 21/08/2026 16:45 23.9 45.0 1,014.1 β†’ Stable 41,484 conditions-neutrales-ou-non-definies
13360 21/08/2026 16:30 23.9 45.0 1,014.1 β†’ Stable 45,468 conditions-neutrales-ou-non-definies
13359 21/08/2026 16:15 24.1 44.0 1,014.1 β†’ Stable 50,088 confortablement-chaud (approx.)
13358 21/08/2026 15:45 24.4 44.0 1,013.5 β†’ Stable 57,132 confortablement-chaud (approx.)
13357 21/08/2026 15:15 24.5 42.0 1,013.5 β†’ Stable 68,520 confortablement-chaud (approx.)
13356 21/08/2026 14:45 24.8 42.0 1,013.6 β†’ Stable 77,316 confortablement-chaud
13355 21/08/2026 14:30 24.7 44.0 1,013.6 β†’ Stable 58,332 confortablement-chaud (approx.)
13354 21/08/2026 14:15 24.7 44.0 1,013.6 β†’ Stable 58,800 confortablement-chaud (approx.)
13353 21/08/2026 14:00 23.9 47.0 1,013.6 β†’ Stable 59,532 conditions-neutrales-ou-non-definies
13352 21/08/2026 13:45 24.7 46.0 1,013.7 β†’ Stable 59,820 confortablement-chaud (approx.)
13351 21/08/2026 13:30 24.8 43.0 1,013.7 β†’ Stable 78,612 confortablement-chaud
13350 21/08/2026 13:15 24.6 44.0 1,013.7 β†’ Stable 81,756 confortablement-chaud
13349 21/08/2026 12:45 24.4 46.0 1,013.5 β†’ Stable 94,812 confortablement-chaud
13348 21/08/2026 12:30 24.3 45.0 1,013.5 β†’ Stable 97,128 confortablement-chaud
13347 21/08/2026 12:15 24.1 48.0 1,013.5 β†’ Stable 98,328 confortablement-chaud
13346 21/08/2026 12:00 23.4 53.0 1,013.5 β†’ Stable 83,520 confortablement-chaud (approx.)
13345 21/08/2026 11:45 22.8 55.0 1,013.3 β†’ Stable 80,652 frais-stable